sensor_id;sensor_type;location;lat;lon;timestamp;pressure;altitude;pressure_sealevel;temperature;humidity
46211;BME280;52144;48.040;-1.594;2023-12-07T00:00:20;101017.75;;;9.26;85.83
46211;BME280;52144;48.040;-1.594;2023-12-07T00:02:47;101009.28;;;8.63;88.76
46211;BME280;52144;48.040;-1.594;2023-12-07T00:05:15;101003.06;;;8.89;88.39
46211;BME280;52144;48.040;-1.594;2023-12-07T00:07:43;100996.28;;;8.80;88.37
46211;BME280;52144;48.040;-1.594;2023-12-07T00:10:11;100992.44;;;8.89;87.76
46211;BME280;52144;48.040;-1.594;2023-12-07T00:12:40;100989.91;;;9.11;85.97
46211;BME280;52144;48.040;-1.594;2023-12-07T00:15:08;100991.09;;;8.77;88.98
46211;BME280;52144;48.040;-1.594;2023-12-07T00:17:36;100978.50;;;8.82;88.02
46211;BME280;52144;48.040;-1.594;2023-12-07T00:20:05;100975.66;;;8.87;87.92
46211;BME280;52144;48.040;-1.594;2023-12-07T00:22:32;100965.63;;;8.70;88.32
46211;BME280;52144;48.040;-1.594;2023-12-07T00:24:59;100956.16;;;8.88;86.91
46211;BME280;52144;48.040;-1.594;2023-12-07T00:27:27;100965.91;;;9.13;85.78
46211;BME280;52144;48.040;-1.594;2023-12-07T00:29:56;100959.19;;;9.02;85.99
46211;BME280;52144;48.040;-1.594;2023-12-07T00:32:24;100966.34;;;9.26;85.20
46211;BME280;52144;48.040;-1.594;2023-12-07T00:34:52;100968.09;;;9.50;82.62
46211;BME280;52144;48.040;-1.594;2023-12-07T00:37:20;100951.44;;;9.45;82.03
46211;BME280;52144;48.040;-1.594;2023-12-07T00:39:48;100960.28;;;9.22;83.45
46211;BME280;52144;48.040;-1.594;2023-12-07T00:42:15;100950.16;;;9.08;84.62
46211;BME280;52144;48.040;-1.594;2023-12-07T00:44:43;100937.94;;;9.02;84.07
46211;BME280;52144;48.040;-1.594;2023-12-07T00:47:12;100941.41;;;9.04;83.96
46211;BME280;52144;48.040;-1.594;2023-12-07T00:49:40;100954.78;;;9.27;82.45
46211;BME280;52144;48.040;-1.594;2023-12-07T00:52:08;100950.00;;;9.60;80.45
46211;BME280;52144;48.040;-1.594;2023-12-07T00:54:36;100938.16;;;8.96;83.22
46211;BME280;52144;48.040;-1.594;2023-12-07T00:57:04;100943.13;;;9.31;82.35
46211;BME280;52144;48.040;-1.594;2023-12-07T00:59:31;100947.56;;;9.54;80.51
46211;BME280;52144;48.040;-1.594;2023-12-07T01:02:01;100943.78;;;9.12;82.08
46211;BME280;52144;48.040;-1.594;2023-12-07T01:04:30;100917.09;;;9.15;81.47
46211;BME280;52144;48.040;-1.594;2023-12-07T01:06:58;100905.66;;;9.37;80.29
46211;BME280;52144;48.040;-1.594;2023-12-07T01:09:27;100912.22;;;9.03;81.36
46211;BME280;52144;48.040;-1.594;2023-12-07T01:11:54;100902.06;;;9.61;78.17
46211;BME280;52144;48.040;-1.594;2023-12-07T01:14:24;100907.00;;;9.71;77.97
46211;BME280;52144;48.040;-1.594;2023-12-07T01:16:52;100894.66;;;9.46;78.33
46211;BME280;52144;48.040;-1.594;2023-12-07T01:19:20;100878.06;;;9.39;77.58
46211;BME280;52144;48.040;-1.594;2023-12-07T01:21:49;100875.75;;;9.76;76.85
46211;BME280;52144;48.040;-1.594;2023-12-07T01:24:17;100878.22;;;9.58;76.84
46211;BME280;52144;48.040;-1.594;2023-12-07T01:26:44;100873.25;;;9.49;76.76
46211;BME280;52144;48.040;-1.594;2023-12-07T01:29:12;100877.88;;;9.68;74.93
46211;BME280;52144;48.040;-1.594;2023-12-07T01:31:40;100886.41;;;9.76;75.38
46211;BME280;52144;48.040;-1.594;2023-12-07T01:34:08;100886.84;;;9.41;75.99
46211;BME280;52144;48.040;-1.594;2023-12-07T01:36:36;100885.84;;;9.68;74.43
46211;BME280;52144;48.040;-1.594;2023-12-07T01:39:05;100885.28;;;9.59;73.89
46211;BME280;52144;48.040;-1.594;2023-12-07T01:41:33;100899.81;;;9.73;73.60
46211;BME280;52144;48.040;-1.594;2023-12-07T01:44:01;100908.22;;;9.86;72.38
46211;BME280;52144;48.040;-1.594;2023-12-07T01:46:29;100910.44;;;9.96;70.76
46211;BME280;52144;48.040;-1.594;2023-12-07T01:48:57;100909.31;;;9.80;72.23
46211;BME280;52144;48.040;-1.594;2023-12-07T01:51:25;100911.13;;;10.01;71.50
46211;BME280;52144;48.040;-1.594;2023-12-07T01:53:53;100902.09;;;10.06;71.73
46211;BME280;52144;48.040;-1.594;2023-12-07T01:56:23;100877.66;;;9.50;73.22
46211;BME280;52144;48.040;-1.594;2023-12-07T01:58:52;100871.19;;;9.79;72.25
46211;BME280;52144;48.040;-1.594;2023-12-07T02:01:20;100866.84;;;9.77;71.96
46211;BME280;52144;48.040;-1.594;2023-12-07T02:03:48;100850.00;;;9.32;74.07
46211;BME280;52144;48.040;-1.594;2023-12-07T02:06:16;100849.66;;;9.63;73.47
46211;BME280;52144;48.040;-1.594;2023-12-07T02:08:44;100859.16;;;9.47;72.93
46211;BME280;52144;48.040;-1.594;2023-12-07T02:11:12;100854.25;;;9.36;72.81
46211;BME280;52144;48.040;-1.594;2023-12-07T02:13:41;100866.13;;;9.73;72.04
46211;BME280;52144;48.040;-1.594;2023-12-07T02:16:14;100865.38;;;9.46;73.10
46211;BME280;52144;48.040;-1.594;2023-12-07T02:18:48;100860.28;;;9.63;72.46
46211;BME280;52144;48.040;-1.594;2023-12-07T02:21:22;100848.22;;;9.77;71.64
46211;BME280;52144;48.040;-1.594;2023-12-07T02:23:53;100839.97;;;9.83;70.52
46211;BME280;52144;48.040;-1.594;2023-12-07T02:26:27;100832.19;;;9.56;71.64
46211;BME280;52144;48.040;-1.594;2023-12-07T02:28:55;100842.00;;;9.54;71.57
46211;BME280;52144;48.040;-1.594;2023-12-07T02:31:23;100846.22;;;9.60;72.13
46211;BME280;52144;48.040;-1.594;2023-12-07T02:33:51;100850.16;;;9.95;71.04
46211;BME280;52144;48.040;-1.594;2023-12-07T02:36:20;100835.16;;;9.93;70.29
46211;BME280;52144;48.040;-1.594;2023-12-07T02:38:50;100834.53;;;9.86;70.27
46211;BME280;52144;48.040;-1.594;2023-12-07T02:41:20;100835.16;;;9.93;69.90
46211;BME280;52144;48.040;-1.594;2023-12-07T02:43:49;100831.69;;;9.91;70.67
46211;BME280;52144;48.040;-1.594;2023-12-07T02:46:18;100829.72;;;9.96;69.75
46211;BME280;52144;48.040;-1.594;2023-12-07T02:48:46;100819.81;;;9.55;71.62
46211;BME280;52144;48.040;-1.594;2023-12-07T02:51:14;100809.53;;;9.24;73.39
46211;BME280;52144;48.040;-1.594;2023-12-07T02:53:41;100811.78;;;9.35;73.20
46211;BME280;52144;48.040;-1.594;2023-12-07T02:56:09;100807.31;;;9.35;72.72
46211;BME280;52144;48.040;-1.594;2023-12-07T02:58:37;100799.75;;;9.69;71.27
46211;BME280;52144;48.040;-1.594;2023-12-07T03:01:06;100802.38;;;9.70;71.14
46211;BME280;52144;48.040;-1.594;2023-12-07T03:03:34;100804.97;;;9.50;73.45
46211;BME280;52144;48.040;-1.594;2023-12-07T03:06:05;100802.75;;;9.61;72.16
46211;BME280;52144;48.040;-1.594;2023-12-07T03:08:33;100799.91;;;9.66;73.13
46211;BME280;52144;48.040;-1.594;2023-12-07T03:11:01;100799.13;;;9.84;72.21
46211;BME280;52144;48.040;-1.594;2023-12-07T03:13:28;100794.72;;;9.83;72.16
46211;BME280;52144;48.040;-1.594;2023-12-07T03:15:56;100799.34;;;9.79;73.25
46211;BME280;52144;48.040;-1.594;2023-12-07T03:18:25;100800.69;;;9.46;72.79
46211;BME280;52144;48.040;-1.594;2023-12-07T03:20:53;100799.66;;;9.72;72.65
46211;BME280;52144;48.040;-1.594;2023-12-07T03:23:21;100795.66;;;10.04;71.39
46211;BME280;52144;48.040;-1.594;2023-12-07T03:25:49;100796.28;;;9.67;72.64
46211;BME280;52144;48.040;-1.594;2023-12-07T03:28:17;100795.09;;;9.96;71.91
46211;BME280;52144;48.040;-1.594;2023-12-07T03:30:44;100797.63;;;10.19;71.27
46211;BME280;52144;48.040;-1.594;2023-12-07T03:33:12;100785.81;;;10.06;71.68
46211;BME280;52144;48.040;-1.594;2023-12-07T03:35:42;100787.63;;;9.83;71.69
46211;BME280;52144;48.040;-1.594;2023-12-07T03:38:09;100792.91;;;9.85;73.13
46211;BME280;52144;48.040;-1.594;2023-12-07T03:40:37;100797.00;;;9.72;74.22
46211;BME280;52144;48.040;-1.594;2023-12-07T03:43:05;100793.56;;;9.68;73.93
46211;BME280;52144;48.040;-1.594;2023-12-07T03:45:33;100794.91;;;10.00;73.32
46211;BME280;52144;48.040;-1.594;2023-12-07T03:48:01;100794.38;;;10.13;71.92
46211;BME280;52144;48.040;-1.594;2023-12-07T03:50:30;100798.38;;;10.02;72.67
46211;BME280;52144;48.040;-1.594;2023-12-07T03:52:59;100781.59;;;10.00;72.87
46211;BME280;52144;48.040;-1.594;2023-12-07T03:55:27;100766.06;;;9.69;74.08
46211;BME280;52144;48.040;-1.594;2023-12-07T03:57:55;100770.03;;;10.01;73.66
46211;BME280;52144;48.040;-1.594;2023-12-07T04:00:23;100758.38;;;9.61;74.78
46211;BME280;52144;48.040;-1.594;2023-12-07T04:02:51;100741.47;;;9.62;76.42
46211;BME280;52144;48.040;-1.594;2023-12-07T04:05:19;100749.75;;;9.34;77.52
46211;BME280;52144;48.040;-1.594;2023-12-07T04:07:47;100750.47;;;9.38;77.61
46211;BME280;52144;48.040;-1.594;2023-12-07T04:10:16;100751.97;;;9.45;77.08
46211;BME280;52144;48.040;-1.594;2023-12-07T04:12:43;100744.22;;;9.61;77.01
46211;BME280;52144;48.040;-1.594;2023-12-07T04:15:12;100745.59;;;9.49;77.25
46211;BME280;52144;48.040;-1.594;2023-12-07T04:17:43;100733.19;;;9.70;75.79
46211;BME280;52144;48.040;-1.594;2023-12-07T04:20:11;100743.53;;;9.56;76.43
46211;BME280;52144;48.040;-1.594;2023-12-07T04:22:39;100743.84;;;9.48;76.75
46211;BME280;52144;48.040;-1.594;2023-12-07T04:25:08;100730.44;;;9.29;79.26
46211;BME280;52144;48.040;-1.594;2023-12-07T04:27:37;100723.75;;;9.63;78.66
46211;BME280;52144;48.040;-1.594;2023-12-07T04:30:06;100732.53;;;9.43;80.78
46211;BME280;52144;48.040;-1.594;2023-12-07T04:32:34;100757.09;;;9.28;81.76
46211;BME280;52144;48.040;-1.594;2023-12-07T04:35:03;100753.63;;;9.70;80.83
46211;BME280;52144;48.040;-1.594;2023-12-07T04:37:33;100756.28;;;9.70;80.58
46211;BME280;52144;48.040;-1.594;2023-12-07T04:40:01;100745.28;;;9.57;83.26
46211;BME280;52144;48.040;-1.594;2023-12-07T04:42:30;100742.94;;;9.49;83.32
46211;BME280;52144;48.040;-1.594;2023-12-07T04:44:59;100754.00;;;9.38;84.10
46211;BME280;52144;48.040;-1.594;2023-12-07T04:47:27;100744.97;;;9.20;85.78
46211;BME280;52144;48.040;-1.594;2023-12-07T04:49:55;100744.47;;;9.33;84.63
46211;BME280;52144;48.040;-1.594;2023-12-07T04:52:23;100740.81;;;9.35;84.83
46211;BME280;52144;48.040;-1.594;2023-12-07T04:54:51;100745.53;;;9.29;85.66
46211;BME280;52144;48.040;-1.594;2023-12-07T04:57:18;100729.78;;;9.24;85.49
46211;BME280;52144;48.040;-1.594;2023-12-07T04:59:46;100720.53;;;9.11;87.04
46211;BME280;52144;48.040;-1.594;2023-12-07T05:02:16;100722.34;;;9.10;87.33
46211;BME280;52144;48.040;-1.594;2023-12-07T05:04:44;100727.53;;;9.13;87.05
46211;BME280;52144;48.040;-1.594;2023-12-07T05:07:13;100722.59;;;9.26;87.01
46211;BME280;52144;48.040;-1.594;2023-12-07T05:09:41;100729.75;;;9.02;88.01
46211;BME280;52144;48.040;-1.594;2023-12-07T05:12:09;100716.63;;;9.19;87.88
46211;BME280;52144;48.040;-1.594;2023-12-07T05:14:36;100729.28;;;9.36;87.03
46211;BME280;52144;48.040;-1.594;2023-12-07T05:17:04;100731.72;;;8.97;88.93
46211;BME280;52144;48.040;-1.594;2023-12-07T05:19:34;100727.53;;;9.13;89.05
46211;BME280;52144;48.040;-1.594;2023-12-07T05:22:01;100736.53;;;9.09;89.14
46211;BME280;52144;48.040;-1.594;2023-12-07T05:24:30;100728.94;;;9.44;87.91
46211;BME280;52144;48.040;-1.594;2023-12-07T05:27:00;100738.09;;;9.15;89.37
46211;BME280;52144;48.040;-1.594;2023-12-07T05:29:30;100721.78;;;9.24;87.41
46211;BME280;52144;48.040;-1.594;2023-12-07T05:31:57;100729.38;;;9.11;88.33
46211;BME280;52144;48.040;-1.594;2023-12-07T05:34:25;100727.72;;;9.31;86.23
46211;BME280;52144;48.040;-1.594;2023-12-07T05:36:55;100729.38;;;9.11;89.45
46211;BME280;52144;48.040;-1.594;2023-12-07T05:39:22;100732.09;;;9.32;88.24
46211;BME280;52144;48.040;-1.594;2023-12-07T05:41:50;100727.44;;;8.93;91.59
46211;BME280;52144;48.040;-1.594;2023-12-07T05:44:18;100719.47;;;8.93;92.20
46211;BME280;52144;48.040;-1.594;2023-12-07T05:46:48;100711.31;;;8.75;92.82
46211;BME280;52144;48.040;-1.594;2023-12-07T05:49:17;100710.81;;;8.88;93.29
46211;BME280;52144;48.040;-1.594;2023-12-07T05:51:45;100697.94;;;8.77;93.08
46211;BME280;52144;48.040;-1.594;2023-12-07T05:54:14;100695.75;;;8.88;93.69
46211;BME280;52144;48.040;-1.594;2023-12-07T05:56:42;100690.63;;;8.60;94.48
46211;BME280;52144;48.040;-1.594;2023-12-07T05:59:11;100686.81;;;8.67;94.63
46211;BME280;52144;48.040;-1.594;2023-12-07T06:01:39;100685.81;;;8.70;94.69
46211;BME280;52144;48.040;-1.594;2023-12-07T06:04:08;100687.63;;;8.46;95.06
46211;BME280;52144;48.040;-1.594;2023-12-07T06:06:36;100686.50;;;8.75;94.28
46211;BME280;52144;48.040;-1.594;2023-12-07T06:09:04;100689.09;;;8.76;93.72
46211;BME280;52144;48.040;-1.594;2023-12-07T06:11:34;100679.84;;;8.87;93.46
46211;BME280;52144;48.040;-1.594;2023-12-07T06:14:02;100676.00;;;8.48;94.77
46211;BME280;52144;48.040;-1.594;2023-12-07T06:16:32;100676.75;;;8.52;95.81
46211;BME280;52144;48.040;-1.594;2023-12-07T06:19:00;100682.88;;;8.54;94.79
46211;BME280;52144;48.040;-1.594;2023-12-07T06:21:28;100680.75;;;8.63;95.14
46211;BME280;52144;48.040;-1.594;2023-12-07T06:23:56;100678.72;;;8.70;94.35
46211;BME280;52144;48.040;-1.594;2023-12-07T06:26:25;100675.22;;;8.92;92.80
46211;BME280;52144;48.040;-1.594;2023-12-07T06:28:53;100665.72;;;9.08;92.17
46211;BME280;52144;48.040;-1.594;2023-12-07T06:31:21;100661.88;;;8.71;92.79
46211;BME280;52144;48.040;-1.594;2023-12-07T06:33:49;100668.91;;;8.72;93.77
46211;BME280;52144;48.040;-1.594;2023-12-07T06:36:20;100665.84;;;8.59;93.35
46211;BME280;52144;48.040;-1.594;2023-12-07T06:38:48;100658.06;;;8.55;93.44
46211;BME280;52144;48.040;-1.594;2023-12-07T06:41:16;100653.19;;;8.66;93.13
46211;BME280;52144;48.040;-1.594;2023-12-07T06:43:44;100651.84;;;8.78;92.27
46211;BME280;52144;48.040;-1.594;2023-12-07T06:46:13;100638.59;;;8.54;93.05
46211;BME280;52144;48.040;-1.594;2023-12-07T06:48:43;100635.78;;;8.59;92.30
46211;BME280;52144;48.040;-1.594;2023-12-07T06:51:11;100625.81;;;8.64;91.68
46211;BME280;52144;48.040;-1.594;2023-12-07T06:53:41;100617.81;;;8.66;90.94
46211;BME280;52144;48.040;-1.594;2023-12-07T06:56:09;100614.75;;;8.53;92.37
46211;BME280;52144;48.040;-1.594;2023-12-07T06:58:37;100614.03;;;8.49;93.27
46211;BME280;52144;48.040;-1.594;2023-12-07T07:01:04;100600.31;;;8.36;93.03
46211;BME280;52144;48.040;-1.594;2023-12-07T07:03:34;100599.25;;;8.40;93.45
46211;BME280;52144;48.040;-1.594;2023-12-07T07:06:03;100592.22;;;8.16;95.58
46211;BME280;52144;48.040;-1.594;2023-12-07T07:08:31;100589.09;;;8.28;94.79
46211;BME280;52144;48.040;-1.594;2023-12-07T07:10:59;100606.88;;;8.26;95.15
46211;BME280;52144;48.040;-1.594;2023-12-07T07:13:26;100602.47;;;8.50;92.55
46211;BME280;52144;48.040;-1.594;2023-12-07T07:15:54;100606.16;;;8.22;93.99
46211;BME280;52144;48.040;-1.594;2023-12-07T07:18:22;100598.78;;;8.31;94.63
46211;BME280;52144;48.040;-1.594;2023-12-07T07:20:53;100601.00;;;8.65;92.94
46211;BME280;52144;48.040;-1.594;2023-12-07T07:23:21;100600.53;;;8.77;92.73
46211;BME280;52144;48.040;-1.594;2023-12-07T07:25:48;100596.41;;;8.47;93.93
46211;BME280;52144;48.040;-1.594;2023-12-07T07:28:16;100606.25;;;8.67;92.30
46211;BME280;52144;48.040;-1.594;2023-12-07T07:30:44;100602.97;;;8.13;94.99
46211;BME280;52144;48.040;-1.594;2023-12-07T07:33:12;100594.53;;;8.49;94.35
46211;BME280;52144;48.040;-1.594;2023-12-07T07:35:40;100584.09;;;8.44;95.07
46211;BME280;52144;48.040;-1.594;2023-12-07T07:38:09;100575.59;;;8.58;93.80
46211;BME280;52144;48.040;-1.594;2023-12-07T07:40:37;100575.09;;;8.48;94.05
46211;BME280;52144;48.040;-1.594;2023-12-07T07:43:05;100566.50;;;8.18;95.17
46211;BME280;52144;48.040;-1.594;2023-12-07T07:45:33;100563.84;;;8.18;95.32
46211;BME280;52144;48.040;-1.594;2023-12-07T07:48:01;100563.25;;;8.33;95.68
46211;BME280;52144;48.040;-1.594;2023-12-07T07:50:29;100552.19;;;8.22;95.96
46211;BME280;52144;48.040;-1.594;2023-12-07T07:52:57;100548.38;;;8.29;94.17
46211;BME280;52144;48.040;-1.594;2023-12-07T07:55:26;100545.72;;;8.29;95.75
46211;BME280;52144;48.040;-1.594;2023-12-07T07:57:54;100555.09;;;8.61;92.64
46211;BME280;52144;48.040;-1.594;2023-12-07T08:00:22;100549.75;;;8.39;93.17
46211;BME280;52144;48.040;-1.594;2023-12-07T08:02:52;100550.16;;;8.74;93.06
46211;BME280;52144;48.040;-1.594;2023-12-07T08:05:20;100541.28;;;8.75;92.63
46211;BME280;52144;48.040;-1.594;2023-12-07T08:07:48;100544.59;;;8.58;93.21
46211;BME280;52144;48.040;-1.594;2023-12-07T08:10:16;100532.34;;;8.76;94.15
46211;BME280;52144;48.040;-1.594;2023-12-07T08:12:45;100544.97;;;8.49;95.04
46211;BME280;52144;48.040;-1.594;2023-12-07T08:15:13;100551.25;;;8.47;94.74
46211;BME280;52144;48.040;-1.594;2023-12-07T08:17:41;100549.03;;;8.58;94.27
46211;BME280;52144;48.040;-1.594;2023-12-07T08:20:09;100545.53;;;8.57;94.57
46211;BME280;52144;48.040;-1.594;2023-12-07T08:22:37;100548.53;;;8.48;95.34
46211;BME280;52144;48.040;-1.594;2023-12-07T08:25:07;100538.47;;;8.56;94.78
46211;BME280;52144;48.040;-1.594;2023-12-07T08:27:38;100525.59;;;8.23;96.32
46211;BME280;52144;48.040;-1.594;2023-12-07T08:30:08;100526.91;;;8.35;96.77
46211;BME280;52144;48.040;-1.594;2023-12-07T08:32:37;100517.53;;;8.49;96.23
46211;BME280;52144;48.040;-1.594;2023-12-07T08:35:06;100524.34;;;8.56;95.11
46211;BME280;52144;48.040;-1.594;2023-12-07T08:37:33;100531.00;;;8.66;94.58
46211;BME280;52144;48.040;-1.594;2023-12-07T08:40:05;100524.94;;;8.84;93.72
46211;BME280;52144;48.040;-1.594;2023-12-07T08:42:33;100524.56;;;8.94;92.59
46211;BME280;52144;48.040;-1.594;2023-12-07T08:45:01;100522.13;;;8.67;94.06
46211;BME280;52144;48.040;-1.594;2023-12-07T08:47:30;100517.50;;;8.93;93.79
46211;BME280;52144;48.040;-1.594;2023-12-07T08:49:58;100519.22;;;8.73;94.61
46211;BME280;52144;48.040;-1.594;2023-12-07T08:52:26;100512.91;;;8.76;94.65
46211;BME280;52144;48.040;-1.594;2023-12-07T08:55:10;100520.19;;;8.71;94.77
46211;BME280;52144;48.040;-1.594;2023-12-07T08:57:38;100501.97;;;8.83;94.88
46211;BME280;52144;48.040;-1.594;2023-12-07T09:00:07;100494.69;;;8.67;95.96
46211;BME280;52144;48.040;-1.594;2023-12-07T09:02:36;100489.69;;;8.59;95.92
46211;BME280;52144;48.040;-1.594;2023-12-07T09:05:13;100473.00;;;8.77;94.89
46211;BME280;52144;48.040;-1.594;2023-12-07T09:07:41;100484.41;;;8.79;95.71
46211;BME280;52144;48.040;-1.594;2023-12-07T09:10:09;100478.13;;;8.60;96.38
46211;BME280;52144;48.040;-1.594;2023-12-07T09:12:37;100470.44;;;8.54;96.77
46211;BME280;52144;48.040;-1.594;2023-12-07T09:15:06;100463.28;;;8.76;95.82
46211;BME280;52144;48.040;-1.594;2023-12-07T09:17:38;100467.84;;;8.73;95.17
46211;BME280;52144;48.040;-1.594;2023-12-07T09:20:08;100467.41;;;8.63;96.90
46211;BME280;52144;48.040;-1.594;2023-12-07T09:22:42;100465.03;;;8.98;95.02
46211;BME280;52144;48.040;-1.594;2023-12-07T09:25:10;100461.31;;;8.81;95.06
46211;BME280;52144;48.040;-1.594;2023-12-07T09:27:38;100472.06;;;8.78;95.02
46211;BME280;52144;48.040;-1.594;2023-12-07T09:30:07;100460.25;;;8.86;95.48
46211;BME280;52144;48.040;-1.594;2023-12-07T09:32:40;100434.56;;;8.43;97.31
46211;BME280;52144;48.040;-1.594;2023-12-07T09:35:11;100425.41;;;8.29;99.43
46211;BME280;52144;48.040;-1.594;2023-12-07T09:37:42;100439.66;;;8.48;98.64
46211;BME280;52144;48.040;-1.594;2023-12-07T09:40:14;100447.59;;;8.70;96.94
46211;BME280;52144;48.040;-1.594;2023-12-07T09:42:44;100444.69;;;8.76;96.15
46211;BME280;52144;48.040;-1.594;2023-12-07T09:45:12;100440.41;;;8.52;96.87
46211;BME280;52144;48.040;-1.594;2023-12-07T09:47:46;100446.56;;;8.95;95.91
46211;BME280;52144;48.040;-1.594;2023-12-07T09:50:16;100438.72;;;8.71;96.50
46211;BME280;52144;48.040;-1.594;2023-12-07T09:52:47;100440.69;;;8.66;97.31
46211;BME280;52144;48.040;-1.594;2023-12-07T09:55:30;100425.63;;;8.67;97.00
46211;BME280;52144;48.040;-1.594;2023-12-07T09:57:58;100420.72;;;8.57;97.53
46211;BME280;52144;48.040;-1.594;2023-12-07T10:00:26;100418.09;;;8.56;97.49
46211;BME280;52144;48.040;-1.594;2023-12-07T10:02:56;100419.59;;;8.63;97.63
46211;BME280;52144;48.040;-1.594;2023-12-07T10:05:25;100432.41;;;8.74;97.21
46211;BME280;52144;48.040;-1.594;2023-12-07T10:07:53;100421.72;;;8.55;97.35
46211;BME280;52144;48.040;-1.594;2023-12-07T10:10:20;100414.81;;;8.71;97.73
46211;BME280;52144;48.040;-1.594;2023-12-07T10:12:51;100407.16;;;8.84;96.96
46211;BME280;52144;48.040;-1.594;2023-12-07T10:15:20;100406.91;;;8.90;96.40
46211;BME280;52144;48.040;-1.594;2023-12-07T10:17:50;100405.63;;;8.99;95.93
46211;BME280;52144;48.040;-1.594;2023-12-07T10:20:21;100406.91;;;8.90;96.48
46211;BME280;52144;48.040;-1.594;2023-12-07T10:23:00;100394.59;;;9.08;96.91
46211;BME280;52144;48.040;-1.594;2023-12-07T10:25:30;100404.81;;;9.17;94.48
46211;BME280;52144;48.040;-1.594;2023-12-07T10:27:58;100386.44;;;8.72;96.73
46211;BME280;52144;48.040;-1.594;2023-12-07T10:30:26;100381.34;;;8.67;96.57
46211;BME280;52144;48.040;-1.594;2023-12-07T10:32:54;100379.59;;;8.87;96.78
46211;BME280;52144;48.040;-1.594;2023-12-07T10:35:24;100374.06;;;9.31;93.85
46211;BME280;52144;48.040;-1.594;2023-12-07T10:37:52;100356.09;;;9.17;95.06
46211;BME280;52144;48.040;-1.594;2023-12-07T10:40:20;100332.28;;;9.14;96.12
46211;BME280;52144;48.040;-1.594;2023-12-07T10:42:48;100326.91;;;9.15;97.25
46211;BME280;52144;48.040;-1.594;2023-12-07T10:45:16;100320.16;;;9.08;97.43
46211;BME280;52144;48.040;-1.594;2023-12-07T10:47:44;100320.59;;;8.99;96.95
46211;BME280;52144;48.040;-1.594;2023-12-07T10:50:13;100322.47;;;9.35;96.15
46211;BME280;52144;48.040;-1.594;2023-12-07T10:52:48;100333.31;;;9.11;96.25
46211;BME280;52144;48.040;-1.594;2023-12-07T10:55:20;100331.66;;;8.90;97.37
46211;BME280;52144;48.040;-1.594;2023-12-07T10:57:52;100310.50;;;8.87;98.87
46211;BME280;52144;48.040;-1.594;2023-12-07T11:00:21;100288.34;;;9.26;96.40
46211;BME280;52144;48.040;-1.594;2023-12-07T11:03:06;100268.44;;;9.34;96.37
46211;BME280;52144;48.040;-1.594;2023-12-07T11:05:35;100268.16;;;9.21;98.41
46211;BME280;52144;48.040;-1.594;2023-12-07T11:08:08;100246.16;;;9.37;96.41
46211;BME280;52144;48.040;-1.594;2023-12-07T11:10:45;100250.19;;;9.08;97.14
46211;BME280;52144;48.040;-1.594;2023-12-07T11:13:20;100255.88;;;9.00;98.77
46211;BME280;52144;48.040;-1.594;2023-12-07T11:15:50;100267.41;;;9.18;97.92
46211;BME280;52144;48.040;-1.594;2023-12-07T11:18:18;100266.94;;;9.29;97.45
46211;BME280;52144;48.040;-1.594;2023-12-07T11:20:46;100252.56;;;9.33;97.08
46211;BME280;52144;48.040;-1.594;2023-12-07T11:23:17;100259.53;;;9.16;97.53
46211;BME280;52144;48.040;-1.594;2023-12-07T11:25:46;100254.16;;;9.54;96.41
46211;BME280;52144;48.040;-1.594;2023-12-07T11:28:15;100256.44;;;9.44;95.08
46211;BME280;52144;48.040;-1.594;2023-12-07T11:30:45;100253.72;;;9.63;95.39
46211;BME280;52144;48.040;-1.594;2023-12-07T11:33:15;100246.50;;;9.29;98.10
46211;BME280;52144;48.040;-1.594;2023-12-07T11:36:04;100242.72;;;9.16;97.83
46211;BME280;52144;48.040;-1.594;2023-12-07T11:38:33;100226.34;;;9.25;96.59
46211;BME280;52144;48.040;-1.594;2023-12-07T11:41:03;100217.72;;;9.20;97.59
46211;BME280;52144;48.040;-1.594;2023-12-07T11:43:40;100210.94;;;9.32;96.37
46211;BME280;52144;48.040;-1.594;2023-12-07T11:46:11;100202.41;;;9.25;96.52
46211;BME280;52144;48.040;-1.594;2023-12-07T11:48:39;100195.63;;;9.54;95.85
46211;BME280;52144;48.040;-1.594;2023-12-07T11:51:13;100196.13;;;9.45;95.62
46211;BME280;52144;48.040;-1.594;2023-12-07T11:53:42;100196.84;;;9.30;95.56
46211;BME280;52144;48.040;-1.594;2023-12-07T11:56:10;100184.31;;;9.51;95.76
46211;BME280;52144;48.040;-1.594;2023-12-07T11:58:39;100190.13;;;9.03;98.27
46211;BME280;52144;48.040;-1.594;2023-12-07T12:01:07;100179.50;;;9.40;96.25
46211;BME280;52144;48.040;-1.594;2023-12-07T12:03:36;100165.41;;;9.20;96.82
46211;BME280;52144;48.040;-1.594;2023-12-07T12:06:05;100160.59;;;9.29;97.59
46211;BME280;52144;48.040;-1.594;2023-12-07T12:08:35;100158.38;;;9.19;97.56
46211;BME280;52144;48.040;-1.594;2023-12-07T12:11:04;100148.31;;;9.43;95.91
46211;BME280;52144;48.040;-1.594;2023-12-07T12:13:34;100134.41;;;9.56;95.90
46211;BME280;52144;48.040;-1.594;2023-12-07T12:16:03;100122.75;;;9.41;96.34
46211;BME280;52144;48.040;-1.594;2023-12-07T12:18:33;100112.72;;;9.46;96.24
46211;BME280;52144;48.040;-1.594;2023-12-07T12:21:02;100098.72;;;9.25;96.87
46211;BME280;52144;48.040;-1.594;2023-12-07T12:23:30;100090.03;;;9.21;97.50
46211;BME280;52144;48.040;-1.594;2023-12-07T12:25:58;100089.97;;;9.58;96.47
46211;BME280;52144;48.040;-1.594;2023-12-07T12:28:28;100087.97;;;9.79;94.04
46211;BME280;52144;48.040;-1.594;2023-12-07T12:30:59;100083.00;;;9.55;96.20
46211;BME280;52144;48.040;-1.594;2023-12-07T12:33:27;100066.59;;;9.47;95.31
46211;BME280;52144;48.040;-1.594;2023-12-07T12:36:02;100064.38;;;9.38;97.29
46211;BME280;52144;48.040;-1.594;2023-12-07T12:38:31;100071.44;;;9.21;96.97
46211;BME280;52144;48.040;-1.594;2023-12-07T12:41:08;100066.69;;;9.28;96.88
46211;BME280;52144;48.040;-1.594;2023-12-07T12:43:38;100060.34;;;9.31;96.80
46211;BME280;52144;48.040;-1.594;2023-12-07T12:46:06;100068.25;;;9.32;97.02
46211;BME280;52144;48.040;-1.594;2023-12-07T12:48:33;100058.75;;;9.44;95.26
46211;BME280;52144;48.040;-1.594;2023-12-07T12:51:07;100056.25;;;9.23;98.15
46211;BME280;52144;48.040;-1.594;2023-12-07T12:53:36;100056.88;;;9.11;97.83
46211;BME280;52144;48.040;-1.594;2023-12-07T12:56:08;100053.81;;;9.01;98.30
46211;BME280;52144;48.040;-1.594;2023-12-07T12:58:39;100043.44;;;9.32;96.62